Time;durP1;ratioP1;P1;durP2;ratioP2;P2;SDS_P1;SDS_P2;PMS_P1;PMS_P2;Temp;Humidity;BMP_temperature;BMP_pressure;BME280_temperature;BME280_humidity;BME280_pressure;Samples;Min_cycle;Max_cycle;Signal;HPM_P1;HPM_P2
2021/11/26 00:00:06;;;;;;;36.15;14.55;;;6.40;99.90;;;;;;4943298;29;20136;-85
2021/11/26 00:02:32;;;;;;;25.67;13.30;;;6.40;99.90;;;;;;4943889;29;20118;-84
2021/11/26 00:04:58;;;;;;;24.95;13.25;;;6.40;99.90;;;;;;4947491;29;20336;-84
2021/11/26 00:07:24;;;;;;;27.35;12.43;;;6.40;99.90;;;;;;4946965;29;20035;-84
2021/11/26 00:09:51;;;;;;;22.65;12.43;;;6.40;99.90;;;;;;4947727;29;20378;-82
2021/11/26 00:12:18;;;;;;;24.65;11.25;;;6.40;99.90;;;;;;4948014;29;20046;-82
2021/11/26 00:17:20;;;;;;;19.30;9.80;;;6.30;99.90;;;;;;4947130;29;20098;-82
2021/11/26 00:19:47;;;;;;;20.02;9.13;;;6.40;99.90;;;;;;4947690;29;20012;-82
2021/11/26 00:22:14;;;;;;;19.52;8.95;;;6.40;99.90;;;;;;4947176;29;20039;-82
2021/11/26 00:24:40;;;;;;;17.77;7.90;;;6.40;99.90;;;;;;4946834;29;20043;-83
2021/11/26 00:27:06;;;;;;;18.20;7.60;;;6.40;99.90;;;;;;4947367;29;20078;-82
2021/11/26 00:29:32;;;;;;;19.65;8.02;;;6.40;99.90;;;;;;4946833;29;20265;-82
2021/11/26 00:31:57;;;;;;;20.50;8.18;;;6.50;99.90;;;;;;4946572;29;20043;-82
2021/11/26 00:34:26;;;;;;;23.70;7.70;;;6.40;99.90;;;;;;4946660;29;20028;-82
2021/11/26 00:36:52;;;;;;;16.42;6.72;;;6.40;99.90;;;;;;4945040;29;20326;-82
2021/11/26 00:39:18;;;;;;;15.00;6.93;;;6.40;99.90;;;;;;4946543;29;20031;-82
2021/11/26 00:41:44;;;;;;;20.38;6.88;;;6.40;99.90;;;;;;4946729;29;20034;-82
2021/11/26 00:44:10;;;;;;;19.10;7.22;;;6.40;99.90;;;;;;4945909;29;20027;-82
2021/11/26 00:46:36;;;;;;;18.27;6.88;;;6.40;99.90;;;;;;4946331;29;20035;-82
2021/11/26 00:49:03;;;;;;;16.83;6.72;;;6.30;99.90;;;;;;4946624;29;20054;-82
2021/11/26 00:51:30;;;;;;;20.35;6.57;;;6.30;99.90;;;;;;4946499;29;20035;-82
2021/11/26 00:53:59;;;;;;;20.42;6.60;;;6.30;99.90;;;;;;4944693;29;20342;-82
2021/11/26 00:56:24;;;;;;;16.10;6.85;;;6.20;99.90;;;;;;4945462;29;20056;-83
2021/11/26 00:58:50;;;;;;;16.77;7.05;;;6.20;99.90;;;;;;4945605;29;20094;-83
2021/11/26 01:01:16;;;;;;;16.92;6.82;;;6.20;99.90;;;;;;4946364;29;20020;-83
2021/11/26 01:03:42;;;;;;;18.35;7.38;;;6.20;99.90;;;;;;4945771;29;20024;-82
2021/11/26 01:06:08;;;;;;;18.17;6.63;;;6.10;99.90;;;;;;4946077;29;20054;-82
2021/11/26 01:08:33;;;;;;;19.30;7.20;;;6.00;99.90;;;;;;4944221;29;20042;-82
2021/11/26 01:10:59;;;;;;;19.38;7.15;;;6.00;99.90;;;;;;4945901;29;20024;-82
2021/11/26 01:13:26;;;;;;;13.90;6.75;;;6.00;99.90;;;;;;4946023;29;20056;-83
2021/11/26 01:15:52;;;;;;;15.98;7.50;;;5.90;99.90;;;;;;4945671;29;20030;-81
2021/11/26 01:18:18;;;;;;;19.38;7.72;;;5.80;99.90;;;;;;4946028;29;20225;-82
2021/11/26 01:20:44;;;;;;;19.27;7.50;;;5.80;99.90;;;;;;4945622;29;20024;-82
2021/11/26 01:23:11;;;;;;;18.75;6.80;;;5.70;99.90;;;;;;4945531;29;20020;-82
2021/11/26 01:25:37;;;;;;;19.10;7.18;;;5.60;99.90;;;;;;4945490;29;20023;-83
2021/11/26 01:28:03;;;;;;;16.52;6.93;;;5.70;99.90;;;;;;4945873;29;20308;-81
2021/11/26 01:30:35;;;;;;;18.48;7.43;;;5.60;99.90;;;;;;4945862;29;20342;-82
2021/11/26 01:33:05;;;;;;;15.43;6.45;;;5.60;99.90;;;;;;4945651;29;20079;-82
2021/11/26 01:35:32;;;;;;;21.10;6.50;;;5.60;99.90;;;;;;4946010;29;20023;-82
2021/11/26 01:37:59;;;;;;;16.40;6.85;;;5.50;99.90;;;;;;4945537;29;20394;-82
2021/11/26 01:40:25;;;;;;;18.65;7.00;;;5.50;99.90;;;;;;4945423;29;20023;-82
2021/11/26 01:42:53;;;;;;;19.13;6.80;;;5.50;99.90;;;;;;4945390;29;20082;-82
2021/11/26 01:45:19;;;;;;;18.13;7.38;;;5.40;99.90;;;;;;4945270;29;20279;-82
2021/11/26 01:47:45;;;;;;;23.13;6.18;;;5.50;99.90;;;;;;4945175;29;20043;-82
2021/11/26 01:50:12;;;;;;;13.90;5.85;;;5.50;99.90;;;;;;4945172;29;20027;-83
2021/11/26 01:52:38;;;;;;;15.50;5.90;;;5.50;99.90;;;;;;4943536;29;20111;-82
2021/11/26 01:55:06;;;;;;;15.38;5.63;;;5.50;99.90;;;;;;4944797;29;20334;-82
2021/11/26 01:57:32;;;;;;;19.70;6.40;;;5.50;99.90;;;;;;4936923;29;20151;-82
2021/11/26 01:59:58;;;;;;;15.93;6.47;;;5.40;99.90;;;;;;4945702;29;20055;-82
2021/11/26 02:02:24;;;;;;;16.00;5.78;;;5.40;99.90;;;;;;4944803;29;20042;-82
2021/11/26 02:04:50;;;;;;;13.68;5.13;;;5.40;99.90;;;;;;4940193;29;20036;-82
2021/11/26 02:07:15;;;;;;;21.35;6.95;;;5.40;99.90;;;;;;4944350;29;20039;-82
2021/11/26 02:09:42;;;;;;;10.82;4.90;;;5.40;99.90;;;;;;4945323;29;20027;-82
2021/11/26 02:12:08;;;;;;;17.65;5.95;;;5.40;99.90;;;;;;4944108;29;20047;-82
2021/11/26 02:14:34;;;;;;;17.27;5.57;;;5.50;99.90;;;;;;4945159;29;20020;-82
2021/11/26 02:16:59;;;;;;;21.52;5.50;;;5.40;99.90;;;;;;4944579;29;20329;-82
2021/11/26 02:19:26;;;;;;;14.88;5.22;;;5.40;99.90;;;;;;4944187;29;20091;-82
2021/11/26 02:21:53;;;;;;;11.82;5.15;;;5.30;99.90;;;;;;4943230;29;20043;-82
2021/11/26 02:24:19;;;;;;;13.68;4.88;;;5.30;99.90;;;;;;4944595;29;20259;-82
2021/11/26 02:26:48;;;;;;;13.73;4.90;;;5.30;99.90;;;;;;4943355;29;20055;-82
2021/11/26 02:29:15;;;;;;;21.30;5.57;;;5.20;99.90;;;;;;4945161;29;20674;-82
2021/11/26 02:31:41;;;;;;;19.85;5.40;;;5.30;99.90;;;;;;4945145;29;20319;-82
2021/11/26 02:34:08;;;;;;;14.80;4.78;;;5.30;99.90;;;;;;4944633;29;20041;-82
2021/11/26 02:36:34;;;;;;;13.18;5.20;;;5.30;99.90;;;;;;4944587;29;20045;-82
2021/11/26 02:39:00;;;;;;;14.80;5.57;;;5.30;99.90;;;;;;4944552;29;20023;-82
2021/11/26 02:41:26;;;;;;;12.90;5.10;;;5.20;99.90;;;;;;4944713;29;20147;-82
2021/11/26 02:43:53;;;;;;;17.10;4.95;;;5.20;99.90;;;;;;4944795;29;20028;-82
2021/11/26 02:46:19;;;;;;;14.38;4.72;;;5.20;99.90;;;;;;4944339;29;20143;-82
2021/11/26 02:48:45;;;;;;;17.08;5.30;;;5.20;99.90;;;;;;4935842;29;20150;-83
2021/11/26 02:51:11;;;;;;;15.32;4.95;;;5.10;99.90;;;;;;4923262;29;20082;-83
2021/11/26 02:53:37;;;;;;;14.43;4.65;;;5.20;99.90;;;;;;4929147;29;20392;-84
2021/11/26 02:56:04;;;;;;;18.48;5.65;;;5.20;99.90;;;;;;4932947;29;20055;-83
2021/11/26 02:58:29;;;;;;;17.50;6.25;;;5.20;99.90;;;;;;4925109;29;20103;-82
2021/11/26 03:00:57;;;;;;;15.18;5.65;;;5.20;99.90;;;;;;4931630;29;20063;-83
2021/11/26 03:03:23;;;;;;;13.45;5.35;;;5.20;99.90;;;;;;4932972;29;20031;-82
2021/11/26 03:05:49;;;;;;;13.15;4.97;;;5.20;99.90;;;;;;4932856;29;20024;-82
2021/11/26 03:08:14;;;;;;;20.50;4.95;;;5.20;99.90;;;;;;4932485;29;20110;-82
2021/11/26 03:10:40;;;;;;;16.73;5.53;;;5.20;99.90;;;;;;4932544;29;20060;-82
2021/11/26 03:13:10;;;;;;;12.35;4.53;;;5.20;99.90;;;;;;4932847;29;20174;-83
2021/11/26 03:15:38;;;;;;;16.02;4.85;;;5.10;99.90;;;;;;4933147;29;20031;-81
2021/11/26 03:18:05;;;;;;;15.10;5.78;;;5.20;99.90;;;;;;4932407;29;20043;-82
2021/11/26 03:20:32;;;;;;;14.88;4.68;;;5.10;99.90;;;;;;4933766;29;20103;-82
2021/11/26 03:22:58;;;;;;;15.32;4.85;;;5.20;99.90;;;;;;4914695;29;20051;-82
2021/11/26 03:25:25;;;;;;;17.63;4.65;;;5.20;99.90;;;;;;4913602;29;20024;-82
2021/11/26 03:27:51;;;;;;;16.15;5.03;;;5.20;99.90;;;;;;4914301;29;20016;-82
2021/11/26 03:30:21;;;;;;;16.92;4.18;;;5.20;99.90;;;;;;4914339;29;20115;-82
2021/11/26 03:32:47;;;;;;;14.95;4.13;;;5.20;99.90;;;;;;4914394;29;20020;-82
2021/11/26 03:35:15;;;;;;;17.20;4.40;;;5.20;99.90;;;;;;4912509;29;20529;-82
2021/11/26 03:37:41;;;;;;;13.88;4.22;;;5.10;99.90;;;;;;4931374;29;20102;-83
2021/11/26 03:40:09;;;;;;;15.73;4.32;;;5.20;99.90;;;;;;4935191;29;20380;-82
2021/11/26 03:42:35;;;;;;;16.67;4.78;;;5.20;99.90;;;;;;4933999;29;20042;-82
2021/11/26 03:45:04;;;;;;;9.43;4.05;;;5.00;99.90;;;;;;4935481;29;20030;-82
2021/11/26 03:47:30;;;;;;;13.48;4.03;;;5.00;99.90;;;;;;4934353;29;20020;-82
2021/11/26 03:49:56;;;;;;;10.38;3.78;;;5.00;99.90;;;;;;4936125;29;20059;-82
2021/11/26 03:52:21;;;;;;;19.95;4.95;;;5.00;99.90;;;;;;4936857;29;20048;-82
2021/11/26 03:54:47;;;;;;;15.52;4.90;;;5.00;99.90;;;;;;4936555;29;20036;-82
2021/11/26 03:57:13;;;;;;;11.75;4.30;;;5.00;99.90;;;;;;4936423;29;20125;-83
2021/11/26 03:59:39;;;;;;;26.27;4.20;;;5.00;99.90;;;;;;4936795;29;20453;-82
2021/11/26 04:02:08;;;;;;;13.30;3.95;;;5.00;99.90;;;;;;4936465;29;20051;-82
2021/11/26 04:04:34;;;;;;;19.80;4.43;;;5.00;99.90;;;;;;4936648;29;20112;-83
2021/11/26 04:06:59;;;;;;;18.13;4.80;;;5.10;99.90;;;;;;4936488;29;20110;-82
2021/11/26 04:09:25;;;;;;;11.05;3.70;;;5.10;99.90;;;;;;4936451;29;20019;-82
2021/11/26 04:11:51;;;;;;;13.07;4.22;;;5.10;99.90;;;;;;4936320;29;20038;-82
2021/11/26 04:14:16;;;;;;;13.23;4.25;;;5.00;99.90;;;;;;4936532;29;20107;-82
2021/11/26 04:16:42;;;;;;;14.18;3.85;;;5.00;99.90;;;;;;4936133;29;20035;-82
2021/11/26 04:19:08;;;;;;;8.27;4.53;;;5.00;99.90;;;;;;4936520;29;20038;-82
2021/11/26 04:21:34;;;;;;;15.23;4.07;;;4.90;99.90;;;;;;4936264;29;20028;-82
2021/11/26 04:24:02;;;;;;;14.30;4.20;;;4.90;99.90;;;;;;4936042;29;20027;-82
2021/11/26 04:26:28;;;;;;;12.70;3.50;;;4.90;99.90;;;;;;4936068;29;20051;-81
2021/11/26 04:28:54;;;;;;;18.73;3.83;;;4.90;99.90;;;;;;4936192;29;20028;-82
2021/11/26 04:31:20;;;;;;;16.15;3.72;;;4.90;99.90;;;;;;4934943;29;20131;-82
2021/11/26 04:33:47;;;;;;;11.98;3.90;;;4.90;99.90;;;;;;4936215;29;20540;-82
2021/11/26 04:36:13;;;;;;;14.18;4.00;;;4.90;99.90;;;;;;4934679;29;20160;-82
2021/11/26 04:38:39;;;;;;;11.95;3.78;;;4.90;99.90;;;;;;4935827;29;20027;-82
2021/11/26 04:41:04;;;;;;;14.18;3.67;;;4.90;99.90;;;;;;4935809;29;20039;-82
2021/11/26 04:43:30;;;;;;;16.63;4.13;;;4.90;99.90;;;;;;4935752;29;20034;-82
2021/11/26 04:45:56;;;;;;;14.13;3.50;;;4.90;99.90;;;;;;4935802;29;20090;-83
2021/11/26 04:48:23;;;;;;;16.38;4.15;;;4.90;99.90;;;;;;4935894;29;20027;-82
2021/11/26 04:50:49;;;;;;;11.38;3.65;;;4.90;99.90;;;;;;4933499;29;20057;-82
2021/11/26 04:53:16;;;;;;;19.45;4.05;;;4.70;99.90;;;;;;4935611;29;20042;-82
2021/11/26 04:55:42;;;;;;;16.05;3.63;;;4.80;99.90;;;;;;4935547;29;20509;-82
2021/11/26 04:58:08;;;;;;;12.25;4.13;;;4.70;99.90;;;;;;4935648;29;20070;-82
2021/11/26 05:00:34;;;;;;;16.17;3.08;;;4.80;99.90;;;;;;4935742;29;20016;-82
2021/11/26 05:03:00;;;;;;;12.50;3.25;;;4.80;99.90;;;;;;4935539;29;20038;-82
2021/11/26 05:05:26;;;;;;;16.67;3.80;;;4.80;99.90;;;;;;4935649;29;20389;-82
2021/11/26 05:07:52;;;;;;;19.98;6.35;;;4.80;99.90;;;;;;4935492;29;20087;-82
2021/11/26 05:10:20;;;;;;;15.88;4.65;;;4.80;99.90;;;;;;4935278;29;20106;-82
2021/11/26 05:12:56;;;;;;;15.50;3.88;;;4.80;99.90;;;;;;4934297;29;20034;-82
2021/11/26 05:15:25;;;;;;;12.57;3.33;;;4.80;99.90;;;;;;4935807;29;20031;-81
2021/11/26 05:17:56;;;;;;;12.85;3.53;;;4.80;99.90;;;;;;4934162;29;20032;-82
2021/11/26 05:20:22;;;;;;;12.20;3.97;;;4.80;99.90;;;;;;4935297;29;20023;-81
2021/11/26 05:22:51;;;;;;;11.48;4.32;;;4.90;99.90;;;;;;4935459;29;20094;-82
2021/11/26 05:25:18;;;;;;;14.63;4.03;;;4.90;99.90;;;;;;4934618;29;20023;-82
2021/11/26 05:27:43;;;;;;;12.35;3.47;;;5.00;99.90;;;;;;4934952;29;20028;-82
2021/11/26 05:30:12;;;;;;;15.80;4.00;;;4.90;99.90;;;;;;4934880;29;20405;-82
2021/11/26 05:32:39;;;;;;;13.60;3.80;;;4.90;99.90;;;;;;4934646;29;20040;-82
2021/11/26 05:35:07;;;;;;;14.57;3.50;;;5.00;99.90;;;;;;4934852;29;20438;-81
2021/11/26 05:37:32;;;;;;;12.13;3.67;;;5.00;99.90;;;;;;4934319;29;20076;-82
2021/11/26 05:39:58;;;;;;;12.35;3.53;;;5.00;99.90;;;;;;4934627;29;20122;-84
2021/11/26 05:42:24;;;;;;;13.48;3.28;;;5.00;99.90;;;;;;4934945;29;20042;-83
2021/11/26 05:44:49;;;;;;;16.85;3.53;;;5.00;99.90;;;;;;4934920;29;20023;-83
2021/11/26 05:47:15;;;;;;;13.50;3.55;;;5.00;99.90;;;;;;4934776;29;20084;-83
2021/11/26 05:49:41;;;;;;;18.10;3.78;;;4.90;99.90;;;;;;4934597;29;20028;-83
2021/11/26 05:52:06;;;;;;;14.27;3.63;;;4.80;99.90;;;;;;4935186;29;20372;-83
2021/11/26 05:54:32;;;;;;;13.45;3.75;;;4.80;99.90;;;;;;4934630;29;20024;-81
2021/11/26 05:56:58;;;;;;;12.55;3.88;;;4.90;99.90;;;;;;4934308;29;20059;-81
2021/11/26 05:59:23;;;;;;;15.27;3.80;;;4.90;99.90;;;;;;4934684;29;20030;-81
2021/11/26 06:01:49;;;;;;;12.43;3.42;;;4.90;99.90;;;;;;4934247;29;20370;-81
2021/11/26 06:04:15;;;;;;;17.13;4.10;;;4.90;99.90;;;;;;4934349;29;20449;-83
2021/11/26 06:06:41;;;;;;;15.27;3.72;;;4.90;99.90;;;;;;4934437;29;20496;-83
2021/11/26 06:09:06;;;;;;;16.95;3.55;;;5.00;99.90;;;;;;4934030;29;20059;-83
2021/11/26 06:11:32;;;;;;;13.73;3.25;;;4.90;99.90;;;;;;4934413;29;20024;-81
2021/11/26 06:13:59;;;;;;;14.50;3.40;;;5.00;99.90;;;;;;4934271;29;20064;-83
2021/11/26 06:16:26;;;;;;;11.77;3.42;;;4.90;99.90;;;;;;4933783;29;20075;-83
2021/11/26 06:18:52;;;;;;;13.75;3.50;;;4.90;99.90;;;;;;4933953;29;20035;-84
2021/11/26 06:21:18;;;;;;;11.00;2.67;;;4.90;99.90;;;;;;4934267;29;20031;-83
2021/11/26 06:23:43;;;;;;;17.20;4.20;;;5.00;99.90;;;;;;4932674;29;20024;-83
2021/11/26 06:26:09;;;;;;;11.55;3.40;;;4.90;99.90;;;;;;4933996;29;20053;-83
2021/11/26 06:28:35;;;;;;;10.95;3.22;;;5.00;99.90;;;;;;4934049;29;20477;-84
2021/11/26 06:31:00;;;;;;;11.80;3.63;;;4.90;99.90;;;;;;4932632;29;20024;-82
2021/11/26 06:33:27;;;;;;;13.55;3.00;;;5.00;99.90;;;;;;4933917;29;20120;-84
2021/11/26 06:35:53;;;;;;;15.88;3.63;;;5.00;99.90;;;;;;4933581;29;20058;-83
2021/11/26 06:38:19;;;;;;;12.98;3.53;;;5.00;99.90;;;;;;4932841;29;20650;-81
2021/11/26 06:40:46;;;;;;;12.85;3.10;;;5.00;99.90;;;;;;4932633;29;20027;-82
2021/11/26 06:43:12;;;;;;;13.40;2.85;;;5.10;99.90;;;;;;4925824;29;20035;-83
2021/11/26 06:45:40;;;;;;;11.65;3.47;;;5.10;99.90;;;;;;4925465;29;20020;-86
2021/11/26 06:48:06;;;;;;;12.25;3.30;;;5.10;99.90;;;;;;4927678;29;20039;-88
2021/11/26 06:50:31;;;;;;;8.75;3.10;;;5.10;99.90;;;;;;4925182;29;20097;-85
2021/11/26 06:52:57;;;;;;;14.68;3.50;;;5.10;99.90;;;;;;4933782;29;20035;-87
2021/11/26 06:55:23;;;;;;;11.32;3.33;;;5.10;99.90;;;;;;4934293;29;20070;-86
2021/11/26 06:57:49;;;;;;;13.60;2.90;;;5.00;99.90;;;;;;4949080;29;20059;-88
2021/11/26 07:00:17;;;;;;;10.98;3.38;;;5.00;99.90;;;;;;4920713;29;20526;-87
2021/11/26 07:02:43;;;;;;;14.02;3.85;;;4.90;99.90;;;;;;4926399;29;20038;-87
2021/11/26 07:05:10;;;;;;;11.20;4.80;;;4.90;99.90;;;;;;4934715;29;20020;-86
2021/11/26 07:07:36;;;;;;;12.65;3.60;;;4.90;99.90;;;;;;4921377;29;20020;-86
2021/11/26 07:10:04;;;;;;;12.32;3.30;;;4.90;99.90;;;;;;4934028;29;20014;-88
2021/11/26 07:12:30;;;;;;;10.50;3.10;;;4.90;99.90;;;;;;4934072;29;20032;-86
2021/11/26 07:14:56;;;;;;;11.23;3.83;;;5.00;99.90;;;;;;4934361;29;20049;-87
2021/11/26 07:17:22;;;;;;;11.73;3.90;;;4.90;99.90;;;;;;4933103;29;20036;-86
2021/11/26 07:19:49;;;;;;;9.80;3.50;;;4.90;99.90;;;;;;4926392;29;20024;-87
2021/11/26 07:22:16;;;;;;;12.75;3.80;;;4.80;99.90;;;;;;4923691;29;20527;-85
2021/11/26 07:24:43;;;;;;;19.27;5.55;;;4.80;99.90;;;;;;4931168;29;20035;-86
2021/11/26 07:27:09;;;;;;;17.23;5.65;;;4.90;99.90;;;;;;4941028;29;20035;-86
2021/11/26 07:29:35;;;;;;;16.88;5.35;;;4.90;99.90;;;;;;4942665;29;20023;-89
2021/11/26 07:32:01;;;;;;;16.38;5.90;;;5.00;99.90;;;;;;4944777;29;20056;-88
2021/11/26 07:34:27;;;;;;;14.73;5.93;;;5.00;99.90;;;;;;4946392;29;20024;-87
2021/11/26 07:36:54;;;;;;;13.00;5.30;;;5.00;99.90;;;;;;4941196;29;20039;-86
2021/11/26 07:39:21;;;;;;;16.38;4.97;;;5.10;99.90;;;;;;4934149;29;20027;-87
2021/11/26 07:41:48;;;;;;;10.07;4.53;;;5.00;99.90;;;;;;4933831;29;20329;-87
2021/11/26 07:44:14;;;;;;;14.98;4.45;;;5.10;99.90;;;;;;4934288;29;20034;-87
2021/11/26 07:46:39;;;;;;;12.43;4.45;;;5.10;99.90;;;;;;4933731;29;20036;-87
2021/11/26 07:49:05;;;;;;;19.05;5.45;;;5.10;99.90;;;;;;4932361;29;20424;-86
2021/11/26 07:51:31;;;;;;;15.90;5.13;;;5.10;99.90;;;;;;4934124;29;20036;-88
2021/11/26 07:53:57;;;;;;;18.13;5.22;;;5.10;99.90;;;;;;4933570;29;20024;-87
2021/11/26 07:56:23;;;;;;;29.25;7.18;;;5.20;99.90;;;;;;4932146;29;20425;-87
2021/11/26 07:58:49;;;;;;;13.38;6.03;;;5.20;99.90;;;;;;4933695;29;20079;-88
2021/11/26 08:01:15;;;;;;;21.67;6.82;;;5.30;99.90;;;;;;4932224;29;20032;-88
2021/11/26 08:03:41;;;;;;;19.40;7.32;;;5.30;99.90;;;;;;4933948;29;20026;-88
2021/11/26 08:06:07;;;;;;;19.95;7.32;;;5.30;99.90;;;;;;4933585;29;20031;-89
2021/11/26 08:08:32;;;;;;;23.80;7.72;;;5.40;99.90;;;;;;4931952;29;20046;-88
2021/11/26 08:10:58;;;;;;;17.98;8.18;;;5.40;99.90;;;;;;4933709;29;20036;-89
2021/11/26 08:13:24;;;;;;;19.25;7.72;;;5.50;99.90;;;;;;4933923;29;20055;-86
2021/11/26 08:15:50;;;;;;;20.98;7.88;;;5.60;99.90;;;;;;4933442;29;20031;-88
2021/11/26 08:18:15;;;;;;;24.88;8.20;;;5.60;99.90;;;;;;4933177;29;20107;-88
2021/11/26 08:20:41;;;;;;;16.38;8.68;;;5.70;99.90;;;;;;4933468;29;20511;-89
2021/11/26 08:23:07;;;;;;;22.77;8.82;;;5.80;99.90;;;;;;4933711;29;20041;-87
2021/11/26 08:25:34;;;;;;;22.05;9.40;;;5.80;99.90;;;;;;4933089;29;20070;-87
2021/11/26 08:28:00;;;;;;;28.92;8.80;;;5.90;99.90;;;;;;4936477;29;20031;-87
2021/11/26 08:30:26;;;;;;;24.52;9.38;;;6.00;99.90;;;;;;4936605;29;20024;-87
2021/11/26 08:32:52;;;;;;;30.67;13.85;;;6.10;99.90;;;;;;4935273;29;20464;-89
2021/11/26 08:35:20;;;;;;;32.30;13.10;;;6.20;99.90;;;;;;4939934;29;20043;-88
2021/11/26 08:37:46;;;;;;;40.42;13.15;;;6.30;99.90;;;;;;4937134;29;20062;-87
2021/11/26 08:40:13;;;;;;;46.95;11.02;;;6.40;99.90;;;;;;4934729;29;20031;-88
2021/11/26 08:42:39;;;;;;;36.42;11.52;;;6.50;99.90;;;;;;4936662;29;20035;-89
2021/11/26 08:45:05;;;;;;;40.33;9.93;;;6.70;99.90;;;;;;4936376;29;20063;-89
2021/11/26 08:47:31;;;;;;;45.42;10.25;;;6.80;99.90;;;;;;4936588;29;20039;-89
2021/11/26 08:49:57;;;;;;;42.70;10.77;;;6.90;99.90;;;;;;4936277;29;20047;-89
2021/11/26 08:52:24;;;;;;;43.58;11.10;;;6.90;99.90;;;;;;4936107;29;20027;-89
2021/11/26 08:54:51;;;;;;;36.60;9.57;;;7.00;99.90;;;;;;4936038;29;20024;-87
2021/11/26 08:57:18;;;;;;;40.80;10.20;;;7.00;99.90;;;;;;4935736;29;20071;-88
2021/11/26 08:59:43;;;;;;;28.58;9.88;;;7.10;99.90;;;;;;4935815;29;20492;-88
2021/11/26 09:02:11;;;;;;;33.33;8.98;;;7.10;99.90;;;;;;4935974;29;20086;-89
2021/11/26 09:04:38;;;;;;;22.95;6.53;;;7.10;99.90;;;;;;4935920;29;20071;-88
2021/11/26 09:07:04;;;;;;;20.30;6.60;;;7.20;99.90;;;;;;4935755;29;20519;-88
2021/11/26 09:09:29;;;;;;;24.17;12.57;;;7.30;99.90;;;;;;4934203;29;20059;-87
2021/11/26 09:11:55;;;;;;;20.45;10.82;;;7.40;99.90;;;;;;4935076;29;20078;-88
2021/11/26 09:14:21;;;;;;;22.85;10.95;;;7.40;99.90;;;;;;4934956;29;20509;-90
2021/11/26 09:16:47;;;;;;;33.20;13.00;;;7.50;99.90;;;;;;4935394;29;20038;-88
2021/11/26 09:19:13;;;;;;;20.90;10.55;;;7.60;99.90;;;;;;4935623;29;20035;-89
2021/11/26 09:21:38;;;;;;;38.03;18.85;;;7.60;99.90;;;;;;4934204;29;20027;-89
2021/11/26 09:24:04;;;;;;;64.07;27.20;;;7.80;99.90;;;;;;4935744;29;20036;-89
2021/11/26 09:26:30;;;;;;;30.60;9.85;;;7.80;99.90;;;;;;4934976;29;20023;-90
2021/11/26 09:28:56;;;;;;;37.90;15.02;;;7.90;99.90;;;;;;4935399;29;20409;-89
2021/11/26 09:31:22;;;;;;;21.98;9.73;;;7.90;99.90;;;;;;4935568;29;20503;-88
2021/11/26 09:33:50;;;;;;;26.67;8.70;;;7.90;99.90;;;;;;4933994;29;20028;-89
2021/11/26 09:36:16;;;;;;;16.13;6.07;;;7.90;99.90;;;;;;4933379;29;20032;-87
2021/11/26 09:38:42;;;;;;;16.17;5.93;;;7.90;99.90;;;;;;4933810;29;20082;-88
2021/11/26 09:41:11;;;;;;;17.45;6.15;;;7.90;99.90;;;;;;4934154;29;20038;-90
2021/11/26 09:43:36;;;;;;;19.35;5.20;;;7.90;99.90;;;;;;4934735;29;20507;-89
2021/11/26 09:46:05;;;;;;;23.70;4.43;;;7.90;99.90;;;;;;4933881;29;20028;-89
2021/11/26 09:48:33;;;;;;;19.73;4.70;;;7.90;99.90;;;;;;4933788;29;20031;-90
2021/11/26 09:50:59;;;;;;;15.65;4.38;;;8.00;99.90;;;;;;4933875;29;20059;-89
2021/11/26 09:53:27;;;;;;;18.50;5.05;;;8.00;99.90;;;;;;4933517;29;20059;-88
2021/11/26 09:55:56;;;;;;;20.42;4.68;;;8.10;99.90;;;;;;4934555;29;20559;-88
2021/11/26 09:58:24;;;;;;;14.82;5.22;;;8.10;99.90;;;;;;4933934;29;20127;-90
2021/11/26 10:00:52;;;;;;;21.42;5.72;;;8.30;99.90;;;;;;4934011;29;20507;-90
2021/11/26 10:03:18;;;;;;;27.92;6.55;;;8.60;99.90;;;;;;4933360;29;20079;-89
2021/11/26 10:05:45;;;;;;;20.33;7.40;;;8.60;99.90;;;;;;4934421;29;20024;-90
2021/11/26 10:08:12;;;;;;;21.60;6.60;;;8.70;99.90;;;;;;4933149;29;20020;-88
2021/11/26 10:10:41;;;;;;;20.55;5.97;;;8.80;99.90;;;;;;4933480;29;20469;-89
2021/11/26 10:13:12;;;;;;;14.15;3.47;;;8.90;99.90;;;;;;4933146;29;20027;-90
2021/11/26 10:15:45;;;;;;;18.17;4.63;;;9.00;99.90;;;;;;4933478;29;20247;-89
2021/11/26 10:18:19;;;;;;;15.52;2.70;;;9.00;99.90;;;;;;4932285;29;20512;-90
2021/11/26 10:20:57;;;;;;;;;;;9.00;99.90;;;;;;4933399;29;20075;-89
2021/11/26 10:23:25;;;;;;;21.15;3.80;;;9.00;99.90;;;;;;4932818;29;19907;-88
2021/11/26 10:25:51;;;;;;;13.93;2.22;;;9.10;99.90;;;;;;4932859;29;20032;-89
2021/11/26 10:28:17;;;;;;;10.60;2.88;;;9.10;99.90;;;;;;4936042;29;20086;-90
2021/11/26 10:30:46;;;;;;;9.55;3.33;;;9.20;99.90;;;;;;4933324;29;20019;-88
2021/11/26 10:33:25;;;;;;;15.25;3.25;;;9.30;99.90;;;;;;4933280;29;20027;-88
2021/11/26 10:36:01;;;;;;;13.05;3.50;;;9.40;99.90;;;;;;4934618;29;20028;-88
2021/11/26 10:38:33;;;;;;;13.40;3.10;;;9.40;99.90;;;;;;4934239;29;20062;-90
2021/11/26 10:41:12;;;;;;;12.07;2.90;;;9.40;99.90;;;;;;4934805;29;20028;-90
2021/11/26 10:59:58;;;;;;;10.38;2.10;;;9.60;99.90;;;;;;4933891;29;20024;-89
2021/11/26 11:02:28;;;;;;;8.65;2.03;;;9.60;99.90;;;;;;4934326;29;20112;-89
2021/11/26 11:04:54;;;;;;;14.50;2.45;;;9.70;99.90;;;;;;4932639;29;20027;-89
2021/11/26 11:07:20;;;;;;;11.00;2.30;;;9.70;99.90;;;;;;4932612;29;20061;-89
2021/11/26 11:09:51;;;;;;;9.57;1.70;;;9.80;99.90;;;;;;4932765;29;20028;-90
2021/11/26 11:12:17;;;;;;;8.38;1.80;;;9.80;99.90;;;;;;4932879;29;20051;-89
2021/11/26 11:14:56;;;;;;;6.85;1.55;;;9.70;99.90;;;;;;4933149;29;20031;-88
2021/11/26 11:17:24;;;;;;;4.70;1.38;;;9.70;99.90;;;;;;4932399;29;20043;-90
2021/11/26 11:19:54;;;;;;;7.45;1.10;;;9.70;99.90;;;;;;4932740;29;20016;-89
2021/11/26 11:22:21;;;;;;;9.38;1.95;;;9.60;99.90;;;;;;4931981;29;20102;-90
2021/11/26 11:24:47;;;;;;;6.22;1.55;;;9.80;99.90;;;;;;4931366;29;20051;-88
2021/11/26 11:27:13;;;;;;;7.28;1.67;;;9.90;99.90;;;;;;4931651;29;20122;-89
2021/11/26 11:29:39;;;;;;;5.85;1.58;;;9.90;99.90;;;;;;4933122;29;20449;-90
2021/11/26 11:32:05;;;;;;;6.85;1.40;;;10.00;99.90;;;;;;4932341;29;20282;-88
2021/11/26 11:34:32;;;;;;;7.20;1.20;;;10.10;99.90;;;;;;4931367;29;20264;-89
2021/11/26 11:36:59;;;;;;;5.82;1.25;;;10.30;99.90;;;;;;4932847;29;20110;-90
2021/11/26 11:39:26;;;;;;;4.82;1.23;;;10.30;99.90;;;;;;4915203;29;20016;-89
2021/11/26 11:41:55;;;;;;;6.53;1.10;;;10.40;99.90;;;;;;4914650;29;20032;-89
2021/11/26 11:44:33;;;;;;;8.32;1.70;;;10.40;99.90;;;;;;4914252;29;20086;-90
2021/11/26 11:47:20;;;;;;;6.00;1.20;;;10.50;99.90;;;;;;4916061;29;20043;-90
2021/11/26 11:49:46;;;;;;;9.57;1.17;;;10.50;99.90;;;;;;4932168;29;20584;-88
2021/11/26 11:52:13;;;;;;;6.63;1.20;;;10.40;99.90;;;;;;4932137;29;20102;-90
2021/11/26 11:54:40;;;;;;;7.78;1.38;;;10.30;99.90;;;;;;4931767;29;20477;-89
2021/11/26 11:57:07;;;;;;;5.20;1.40;;;10.40;99.90;;;;;;4932607;29;20058;-88
2021/11/26 11:59:38;;;;;;;10.38;1.88;;;10.40;99.90;;;;;;4933326;29;20032;-88
2021/11/26 12:02:07;;;;;;;8.63;1.48;;;10.60;99.90;;;;;;4935877;29;20042;-89
2021/11/26 12:04:43;;;;;;;6.00;1.45;;;10.70;99.90;;;;;;4935749;29;20393;-88
2021/11/26 12:07:20;;;;;;;13.40;2.33;;;10.60;99.90;;;;;;4935241;29;20400;-89
2021/11/26 12:09:46;;;;;;;8.15;1.40;;;10.60;99.90;;;;;;4936227;29;20520;-88
2021/11/26 12:12:16;;;;;;;8.40;1.75;;;10.60;99.90;;;;;;4935753;29;20027;-88
2021/11/26 12:14:44;;;;;;;9.35;2.28;;;10.80;99.90;;;;;;4936426;29;20571;-88
2021/11/26 12:17:17;;;;;;;10.35;2.67;;;11.00;99.90;;;;;;4936200;29;20040;-89
2021/11/26 12:19:43;;;;;;;13.80;2.25;;;11.00;99.90;;;;;;4939285;29;20067;-88
2021/11/26 12:22:17;;;;;;;11.30;1.80;;;11.00;99.90;;;;;;4934839;29;20039;-89
2021/11/26 12:24:47;;;;;;;8.77;1.20;;;11.10;99.90;;;;;;4934789;29;20090;-89
2021/11/26 12:27:25;;;;;;;11.25;2.00;;;11.00;99.90;;;;;;4934978;29;20036;-88
2021/11/26 12:29:52;;;;;;;9.77;1.52;;;11.10;99.90;;;;;;4935088;29;20121;-90
2021/11/26 12:32:23;;;;;;;11.43;2.00;;;11.10;99.90;;;;;;4935248;29;20034;-89
2021/11/26 12:34:52;;;;;;;13.00;1.67;;;11.00;99.90;;;;;;4936413;29;20032;-89
2021/11/26 12:37:22;;;;;;;9.65;2.13;;;11.00;99.90;;;;;;4934916;29;20063;-90
2021/11/26 12:39:49;;;;;;;11.07;1.50;;;10.90;99.90;;;;;;4934630;29;20024;-90
2021/11/26 12:42:17;;;;;;;11.82;1.92;;;10.90;99.90;;;;;;4935220;29;20032;-88
2021/11/26 12:45:01;;;;;;;8.85;1.30;;;11.00;99.90;;;;;;4935231;29;20148;-89
2021/11/26 12:47:47;;;;;;;12.68;2.15;;;11.20;99.90;;;;;;4935061;29;20392;-88
2021/11/26 12:53:08;;;;;;;9.35;1.55;;;11.50;99.90;;;;;;4936231;29;20234;-89
2021/11/26 12:55:35;;;;;;;8.40;1.58;;;11.40;99.90;;;;;;4934573;29;20031;-88
2021/11/26 12:58:02;;;;;;;15.98;2.17;;;11.20;99.90;;;;;;4934658;29;20042;-90
2021/11/26 13:00:29;;;;;;;8.43;1.40;;;11.10;99.90;;;;;;4934577;29;20389;-90
2021/11/26 13:03:07;;;;;;;13.18;1.65;;;11.10;99.90;;;;;;4934694;29;20031;-89
2021/11/26 13:05:33;;;;;;;11.30;2.10;;;11.00;99.90;;;;;;4935601;29;20043;-89